Time;durP1;ratioP1;P1;durP2;ratioP2;P2;SDS_P1;SDS_P2;PMS_P1;PMS_P2;Temp;Humidity;BMP_temperature;BMP_pressure;BME280_temperature;BME280_humidity;BME280_pressure;Samples;Min_cycle;Max_cycle;Signal;HPM_P1;HPM_P2
2023/08/23 00:00:17;;;;;;;10.43;9.33;;;;;;;;;;5016369;28;20929;-83
2023/08/23 00:02:44;;;;;;;11.83;9.10;;;;;;;;;;5034400;28;20477;-83
2023/08/23 00:05:11;;;;;;;9.33;8.50;;;;;;;;;;5050927;28;20443;-85
2023/08/23 00:07:39;;;;;;;9.50;8.60;;;;;;;;;;5034505;28;21040;-83
2023/08/23 00:10:08;;;;;;;9.67;8.77;;;;;;;;;;5030047;28;20446;-84
2023/08/23 00:12:35;;;;;;;11.50;9.03;;;;;;;;;;5034457;28;20454;-83
2023/08/23 00:15:03;;;;;;;10.30;9.40;;;;;;;;;;5035634;28;20551;-84
2023/08/23 00:17:30;;;;;;;10.70;9.60;;;;;;;;;;5035930;28;20473;-84
2023/08/23 00:19:57;;;;;;;10.30;9.30;;;;;;;;;;5035705;28;20446;-83
2023/08/23 00:22:25;;;;;;;10.23;9.23;;;;;;;;;;5037039;28;20446;-83
2023/08/23 00:24:52;;;;;;;9.30;8.30;;;;;;;;;;5035374;28;20442;-85
2023/08/23 00:27:21;;;;;;;10.20;8.80;;;;;;;;;;5036508;28;20458;-84
2023/08/23 00:29:48;;;;;;;10.17;9.17;;;;;;;;;;5036859;28;21362;-84
2023/08/23 00:32:15;;;;;;;10.87;8.83;;;;;;;;;;5037592;28;20442;-84
2023/08/23 00:34:43;;;;;;;9.50;8.50;;;;;;;;;;5037102;28;20473;-83
2023/08/23 00:37:10;;;;;;;10.03;8.97;;;;;;;;;;5037523;28;20458;-84
2023/08/23 00:39:37;;;;;;;10.53;8.03;;;;;;;;;;5038314;28;20504;-83
2023/08/23 00:42:05;;;;;;;11.57;9.67;;;;;;;;;;5037298;28;20447;-83
2023/08/23 00:44:33;;;;;;;10.57;9.50;;;;;;;;;;5037387;28;20454;-84
2023/08/23 00:47:01;;;;;;;9.57;8.73;;;;;;;;;;5037990;28;20450;-84
2023/08/23 00:49:33;;;;;;;9.73;8.83;;;;;;;;;;5037694;28;20811;-84
2023/08/23 00:52:01;;;;;;;9.60;8.53;;;;;;;;;;5038328;28;20450;-83
2023/08/23 00:54:28;;;;;;;10.67;9.10;;;;;;;;;;5038081;28;20431;-85
2023/08/23 00:56:56;;;;;;;15.37;10.63;;;;;;;;;;5037790;28;20819;-83
2023/08/23 00:59:24;;;;;;;12.50;9.80;;;;;;;;;;5037100;28;20528;-84
2023/08/23 01:01:52;;;;;;;9.40;8.50;;;;;;;;;;5032283;28;20479;-83
2023/08/23 01:04:20;;;;;;;11.10;8.83;;;;;;;;;;5017776;28;20509;-84
2023/08/23 01:06:51;;;;;;;10.57;9.47;;;;;;;;;;5034702;28;20497;-84
2023/08/23 01:09:23;;;;;;;11.43;10.23;;;;;;;;;;5036155;28;20458;-85
2023/08/23 01:11:54;;;;;;;10.60;9.50;;;;;;;;;;5036932;28;20477;-85
2023/08/23 01:14:24;;;;;;;11.07;9.97;;;;;;;;;;5036392;28;20451;-83
2023/08/23 01:16:53;;;;;;;11.40;10.40;;;;;;;;;;5036634;28;20446;-84
2023/08/23 01:19:31;;;;;;;10.03;9.03;;;;;;;;;;5036771;28;20439;-84
2023/08/23 01:21:59;;;;;;;11.07;9.23;;;;;;;;;;5036027;28;20447;-84
2023/08/23 01:24:28;;;;;;;10.17;8.63;;;;;;;;;;5036164;28;20493;-83
2023/08/23 01:26:55;;;;;;;10.00;9.00;;;;;;;;;;5035965;28;20442;-83
2023/08/23 01:29:22;;;;;;;11.13;9.10;;;;;;;;;;5052189;28;20442;-85
2023/08/23 01:31:51;;;;;;;9.47;8.57;;;;;;;;;;5039139;28;20438;-83
2023/08/23 01:34:23;;;;;;;10.43;9.27;;;;;;;;;;5034093;28;20458;-84
2023/08/23 01:36:51;;;;;;;10.27;9.27;;;;;;;;;;5043379;28;20454;-84
2023/08/23 01:39:19;;;;;;;11.00;9.20;;;;;;;;;;5033719;28;20889;-83
2023/08/23 01:41:47;;;;;;;10.93;9.83;;;;;;;;;;5034122;28;20927;-83
2023/08/23 01:44:14;;;;;;;10.57;9.50;;;;;;;;;;5034161;28;20511;-83
2023/08/23 01:46:42;;;;;;;9.63;8.70;;;;;;;;;;5034779;28;20442;-83
2023/08/23 01:49:09;;;;;;;9.03;8.17;;;;;;;;;;5034072;28;20470;-83
2023/08/23 01:51:36;;;;;;;10.70;9.53;;;;;;;;;;5034589;28;20442;-83
2023/08/23 01:54:04;;;;;;;10.10;8.70;;;;;;;;;;5034573;28;20465;-83
2023/08/23 01:56:31;;;;;;;10.60;9.50;;;;;;;;;;5021356;28;20484;-84
2023/08/23 01:59:01;;;;;;;10.60;8.60;;;;;;;;;;5035328;28;20462;-83
2023/08/23 02:01:28;;;;;;;10.50;9.60;;;;;;;;;;5034633;28;20500;-83
2023/08/23 02:03:56;;;;;;;10.60;9.50;;;;;;;;;;5034002;28;20469;-83
2023/08/23 02:06:23;;;;;;;9.10;8.20;;;;;;;;;;5034542;28;20454;-83
2023/08/23 02:08:50;;;;;;;9.30;8.40;;;;;;;;;;5034660;28;20530;-83
2023/08/23 02:11:17;;;;;;;9.20;8.37;;;;;;;;;;5034116;28;20446;-83
2023/08/23 02:13:45;;;;;;;9.50;8.60;;;;;;;;;;5033920;28;20450;-83
2023/08/23 02:16:13;;;;;;;12.00;8.70;;;;;;;;;;5024361;28;20525;-84
2023/08/23 02:18:41;;;;;;;9.07;8.27;;;;;;;;;;5016368;28;20459;-83
2023/08/23 02:21:08;;;;;;;10.80;9.50;;;;;;;;;;5032046;28;20453;-84
2023/08/23 02:23:35;;;;;;;10.13;8.80;;;;;;;;;;5034366;28;20576;-83
2023/08/23 02:26:02;;;;;;;10.07;9.07;;;;;;;;;;5035034;28;20446;-84
2023/08/23 02:28:30;;;;;;;11.73;10.63;;;;;;;;;;5034382;28;20466;-84
2023/08/23 02:31:02;;;;;;;9.60;8.60;;;;;;;;;;5035884;28;20446;-83
2023/08/23 02:33:31;;;;;;;9.80;8.83;;;;;;;;;;5035698;28;20442;-83
2023/08/23 02:35:59;;;;;;;12.33;9.30;;;;;;;;;;5035608;28;20478;-83
2023/08/23 02:38:26;;;;;;;9.63;8.73;;;;;;;;;;5035226;28;20532;-83
2023/08/23 02:40:56;;;;;;;10.20;9.20;;;;;;;;;;5035180;28;20502;-83
2023/08/23 02:43:23;;;;;;;10.03;9.23;;;;;;;;;;5034524;28;20482;-83
2023/08/23 02:45:50;;;;;;;10.40;9.33;;;;;;;;;;5035382;28;20493;-84
2023/08/23 02:48:17;;;;;;;9.60;8.70;;;;;;;;;;5034679;28;20474;-83
2023/08/23 02:53:14;;;;;;;10.17;9.17;;;;;;;;;;5045131;28;20473;-59
2023/08/23 02:55:42;;;;;;;10.50;8.93;;;;;;;;;;5047899;28;20512;-59
2023/08/23 02:58:09;;;;;;;9.47;8.47;;;;;;;;;;5037897;28;20527;-58
2023/08/23 03:00:36;;;;;;;9.67;8.63;;;;;;;;;;5028081;28;20480;-59
2023/08/23 03:03:03;;;;;;;9.73;8.80;;;;;;;;;;5028303;28;20478;-59
2023/08/23 03:05:31;;;;;;;10.50;9.50;;;;;;;;;;5027749;28;20920;-59
2023/08/23 03:07:58;;;;;;;11.27;9.47;;;;;;;;;;5028279;28;21012;-59
2023/08/23 03:10:27;;;;;;;10.20;9.30;;;;;;;;;;5028088;28;21030;-59
2023/08/23 03:12:54;;;;;;;10.50;9.50;;;;;;;;;;5028000;28;20492;-58
2023/08/23 03:15:21;;;;;;;10.00;9.00;;;;;;;;;;5027749;28;20559;-59
2023/08/23 03:17:49;;;;;;;12.50;9.03;;;;;;;;;;5028392;28;21040;-59
2023/08/23 03:20:16;;;;;;;12.17;8.87;;;;;;;;;;5027556;28;21224;-59
2023/08/23 03:22:43;;;;;;;9.63;8.63;;;;;;;;;;5027729;28;20500;-59
2023/08/23 03:25:10;;;;;;;10.00;8.80;;;;;;;;;;5026770;28;20513;-59
2023/08/23 03:27:39;;;;;;;9.97;8.07;;;;;;;;;;5027666;28;20494;-59
2023/08/23 03:30:07;;;;;;;9.53;8.63;;;;;;;;;;5027103;28;20478;-59
2023/08/23 03:32:34;;;;;;;9.07;8.17;;;;;;;;;;5027530;28;20474;-59
2023/08/23 03:35:01;;;;;;;11.23;9.87;;;;;;;;;;5027196;28;20454;-59
2023/08/23 03:37:29;;;;;;;11.30;10.20;;;;;;;;;;5024389;28;20519;-59
2023/08/23 03:39:56;;;;;;;11.03;10.00;;;;;;;;;;5028397;28;20532;-59
2023/08/23 03:42:23;;;;;;;10.57;9.47;;;;;;;;;;5016298;28;20497;-59
2023/08/23 03:44:52;;;;;;;9.80;8.90;;;;;;;;;;5007919;28;20528;-59
2023/08/23 03:47:19;;;;;;;10.70;9.60;;;;;;;;;;5011618;28;20546;-57
2023/08/23 03:49:46;;;;;;;9.80;8.97;;;;;;;;;;5012228;28;20485;-58
2023/08/23 03:52:14;;;;;;;11.63;9.13;;;;;;;;;;5011897;28;20545;-58
2023/08/23 03:54:41;;;;;;;11.53;10.00;;;;;;;;;;5015654;28;20440;-59
2023/08/23 03:57:09;;;;;;;10.17;9.10;;;;;;;;;;5011737;28;20549;-58
2023/08/23 03:59:36;;;;;;;11.50;10.40;;;;;;;;;;5016826;28;20524;-59
2023/08/23 04:02:05;;;;;;;10.97;8.20;;;;;;;;;;5031129;28;20596;-58
2023/08/23 04:04:32;;;;;;;11.27;8.87;;;;;;;;;;5031421;28;20865;-59
2023/08/23 04:06:59;;;;;;;9.40;8.50;;;;;;;;;;5030740;28;20956;-59
2023/08/23 04:09:26;;;;;;;10.97;8.33;;;;;;;;;;5031425;28;21026;-59
2023/08/23 04:11:54;;;;;;;10.03;9.00;;;;;;;;;;5031259;28;20928;-59
2023/08/23 04:14:21;;;;;;;10.47;9.47;;;;;;;;;;5029238;28;20477;-58
2023/08/23 04:16:48;;;;;;;9.40;8.50;;;;;;;;;;5026249;28;20507;-59
2023/08/23 04:19:17;;;;;;;11.80;9.10;;;;;;;;;;5029582;28;20489;-59
2023/08/23 04:21:44;;;;;;;9.57;8.67;;;;;;;;;;5030296;28;20469;-60
2023/08/23 04:24:11;;;;;;;9.40;8.50;;;;;;;;;;5030110;28;20442;-60
2023/08/23 04:26:38;;;;;;;10.90;8.67;;;;;;;;;;5030326;28;20474;-58
2023/08/23 04:29:06;;;;;;;9.70;8.40;;;;;;;;;;5024847;28;20591;-58
2023/08/23 04:31:33;;;;;;;10.13;9.13;;;;;;;;;;5030038;28;21026;-59
2023/08/23 04:34:02;;;;;;;10.03;9.13;;;;;;;;;;5019381;28;20841;-59
2023/08/23 04:36:31;;;;;;;9.60;8.70;;;;;;;;;;5010161;28;21005;-59
2023/08/23 04:38:58;;;;;;;8.80;7.90;;;;;;;;;;5010153;28;20825;-59
2023/08/23 04:41:25;;;;;;;10.30;9.20;;;;;;;;;;5010107;28;20752;-60
2023/08/23 04:43:53;;;;;;;11.27;10.33;;;;;;;;;;5010207;28;20932;-59
2023/08/23 04:46:20;;;;;;;10.60;9.47;;;;;;;;;;5010905;28;20540;-58
2023/08/23 04:48:47;;;;;;;10.17;9.20;;;;;;;;;;5010179;28;20746;-58
2023/08/23 04:51:15;;;;;;;9.70;8.80;;;;;;;;;;5018532;28;20501;-58
2023/08/23 04:53:44;;;;;;;9.90;8.90;;;;;;;;;;5029746;28;20430;-58
2023/08/23 04:56:11;;;;;;;10.50;8.10;;;;;;;;;;5029042;28;20536;-59
2023/08/23 04:58:38;;;;;;;10.27;9.27;;;;;;;;;;5026979;28;20501;-59
2023/08/23 05:01:05;;;;;;;9.50;8.60;;;;;;;;;;5028843;28;20442;-59
2023/08/23 05:03:33;;;;;;;9.83;8.93;;;;;;;;;;5028577;28;20446;-58
2023/08/23 05:06:00;;;;;;;9.33;8.43;;;;;;;;;;5029147;28;20954;-59
2023/08/23 05:08:28;;;;;;;10.07;9.07;;;;;;;;;;5028509;28;20486;-58
2023/08/23 05:10:57;;;;;;;10.57;9.23;;;;;;;;;;5030117;28;20882;-59
2023/08/23 05:13:24;;;;;;;9.17;8.27;;;;;;;;;;5031023;28;20497;-60
2023/08/23 05:15:54;;;;;;;9.83;8.93;;;;;;;;;;5030258;28;20442;-58
2023/08/23 05:18:22;;;;;;;9.10;8.27;;;;;;;;;;5029075;28;20535;-58
2023/08/23 05:20:54;;;;;;;10.20;8.90;;;;;;;;;;5028564;28;20542;-59
2023/08/23 05:23:21;;;;;;;10.70;9.57;;;;;;;;;;5026530;28;20454;-58
2023/08/23 05:25:50;;;;;;;9.33;8.53;;;;;;;;;;5028687;28;20508;-60
2023/08/23 05:28:19;;;;;;;196.87;125.30;;;;;;;;;;5028298;28;20481;-58
2023/08/23 05:30:46;;;;;;;15.47;11.37;;;;;;;;;;5028030;28;20972;-58
2023/08/23 05:33:14;;;;;;;9.17;7.87;;;;;;;;;;5028469;28;20478;-58
2023/08/23 05:35:41;;;;;;;10.50;9.50;;;;;;;;;;5030887;28;20784;-59
2023/08/23 05:38:09;;;;;;;11.20;10.00;;;;;;;;;;5031928;28;20661;-59
2023/08/23 05:40:36;;;;;;;10.83;8.97;;;;;;;;;;5025334;28;20968;-59
2023/08/23 05:43:03;;;;;;;9.17;8.30;;;;;;;;;;5011368;28;20497;-59
2023/08/23 05:45:32;;;;;;;10.60;9.43;;;;;;;;;;5019556;28;20466;-60
2023/08/23 05:48:00;;;;;;;12.03;10.00;;;;;;;;;;5028446;28;20454;-59
2023/08/23 05:50:27;;;;;;;10.23;9.27;;;;;;;;;;5027696;28;20948;-59
2023/08/23 05:52:55;;;;;;;10.13;9.10;;;;;;;;;;5028449;28;20454;-59
2023/08/23 05:55:22;;;;;;;9.53;8.63;;;;;;;;;;5027277;28;20474;-58
2023/08/23 05:57:49;;;;;;;10.20;9.20;;;;;;;;;;5030055;28;20510;-59
2023/08/23 06:00:16;;;;;;;11.50;9.50;;;;;;;;;;5030505;28;20457;-58
2023/08/23 06:02:45;;;;;;;11.20;7.80;;;;;;;;;;5030348;28;20949;-59
2023/08/23 06:05:13;;;;;;;9.17;8.30;;;;;;;;;;5030634;28;20442;-58
2023/08/23 06:07:41;;;;;;;10.30;9.20;;;;;;;;;;5030657;28;20699;-58
2023/08/23 06:10:09;;;;;;;10.03;8.70;;;;;;;;;;5029283;28;20537;-59
2023/08/23 06:12:37;;;;;;;9.10;8.20;;;;;;;;;;5030326;28;20531;-59
2023/08/23 06:15:05;;;;;;;10.60;9.60;;;;;;;;;;5030304;28;20442;-59
2023/08/23 06:17:32;;;;;;;10.73;9.63;;;;;;;;;;5030198;28;20556;-59
2023/08/23 06:20:02;;;;;;;11.17;9.97;;;;;;;;;;5010616;28;20448;-60
2023/08/23 06:22:29;;;;;;;13.03;10.97;;;;;;;;;;5010425;28;20470;-60
2023/08/23 06:24:57;;;;;;;10.87;9.77;;;;;;;;;;5010977;28;20504;-59
2023/08/23 06:27:24;;;;;;;12.97;10.97;;;;;;;;;;5010567;28;20459;-58
2023/08/23 06:29:51;;;;;;;13.00;11.63;;;;;;;;;;5010983;28;20450;-58
2023/08/23 06:32:19;;;;;;;13.23;12.00;;;;;;;;;;5010388;28;20474;-59
2023/08/23 06:34:46;;;;;;;12.17;10.67;;;;;;;;;;5009995;28;20535;-59
2023/08/23 06:37:15;;;;;;;11.60;10.40;;;;;;;;;;5013752;28;20509;-59
2023/08/23 06:39:42;;;;;;;11.40;10.20;;;;;;;;;;5029901;28;20435;-59
2023/08/23 06:42:09;;;;;;;15.43;9.80;;;;;;;;;;5030491;28;20474;-59
2023/08/23 06:44:36;;;;;;;13.60;10.33;;;;;;;;;;5012787;28;20806;-58
2023/08/23 06:47:04;;;;;;;11.53;10.43;;;;;;;;;;5025572;28;20442;-59
2023/08/23 06:49:31;;;;;;;12.40;11.10;;;;;;;;;;5030361;28;20529;-59
2023/08/23 06:51:59;;;;;;;10.20;9.27;;;;;;;;;;5025157;28;20447;-59
2023/08/23 06:54:27;;;;;;;11.00;9.00;;;;;;;;;;5028416;28;20508;-60
2023/08/23 06:56:55;;;;;;;10.10;9.10;;;;;;;;;;5029478;28;20466;-59
2023/08/23 06:59:22;;;;;;;15.40;10.70;;;;;;;;;;5030182;28;20527;-58
2023/08/23 07:01:49;;;;;;;10.83;9.40;;;;;;;;;;5030272;28;20491;-59
2023/08/23 07:04:16;;;;;;;11.87;10.67;;;;;;;;;;5029311;28;20504;-58
2023/08/23 07:06:44;;;;;;;12.03;10.80;;;;;;;;;;5011377;28;20482;-58
2023/08/23 07:09:11;;;;;;;12.63;10.10;;;;;;;;;;5011069;28;20469;-59
2023/08/23 07:11:40;;;;;;;10.50;9.10;;;;;;;;;;5009867;28;20530;-59
2023/08/23 07:14:08;;;;;;;11.37;10.37;;;;;;;;;;5014936;28;20434;-59
2023/08/23 07:16:36;;;;;;;13.17;10.30;;;;;;;;;;5029465;28;20973;-58
2023/08/23 07:19:04;;;;;;;11.30;10.10;;;;;;;;;;5028865;28;20894;-60
2023/08/23 07:21:31;;;;;;;10.40;9.40;;;;;;;;;;5029125;28;20442;-59
2023/08/23 07:23:58;;;;;;;11.80;10.60;;;;;;;;;;5029775;28;20443;-60
2023/08/23 07:26:26;;;;;;;11.13;10.13;;;;;;;;;;5029651;28;20508;-60
2023/08/23 07:28:54;;;;;;;10.73;9.80;;;;;;;;;;5025721;28;20479;-58
2023/08/23 07:31:22;;;;;;;15.30;11.23;;;;;;;;;;5028592;28;20938;-58
2023/08/23 07:33:49;;;;;;;14.47;11.80;;;;;;;;;;5029293;28;20512;-59
2023/08/23 07:36:16;;;;;;;11.50;10.40;;;;;;;;;;5029227;28;20864;-58
2023/08/23 07:38:43;;;;;;;14.87;10.40;;;;;;;;;;5029421;28;20983;-58
2023/08/23 07:41:11;;;;;;;14.57;13.17;;;;;;;;;;5029216;28;20939;-59
2023/08/23 07:43:38;;;;;;;12.40;11.20;;;;;;;;;;5024473;28;20871;-58
2023/08/23 07:46:07;;;;;;;14.03;12.77;;;;;;;;;;5028758;28;20541;-60
2023/08/23 07:48:35;;;;;;;13.47;12.17;;;;;;;;;;5029267;28;20501;-59
2023/08/23 07:51:04;;;;;;;15.93;13.13;;;;;;;;;;5027628;28;20687;-59
2023/08/23 07:53:32;;;;;;;13.97;12.50;;;;;;;;;;5009414;28;20443;-59
2023/08/23 07:55:59;;;;;;;14.60;13.20;;;;;;;;;;5021420;28;20451;-59
2023/08/23 07:58:26;;;;;;;13.47;11.97;;;;;;;;;;5028695;28;20486;-59
2023/08/23 08:00:53;;;;;;;13.30;12.00;;;;;;;;;;5028622;28;20450;-58
2023/08/23 08:03:22;;;;;;;14.07;12.73;;;;;;;;;;5020396;28;20439;-59
2023/08/23 08:05:50;;;;;;;13.87;12.57;;;;;;;;;;5027741;28;20500;-59
2023/08/23 08:08:17;;;;;;;13.23;11.63;;;;;;;;;;5028322;28;20450;-58
2023/08/23 08:10:44;;;;;;;13.93;12.63;;;;;;;;;;5009372;28;20447;-58
2023/08/23 08:13:12;;;;;;;13.37;12.17;;;;;;;;;;5009395;28;20950;-59
2023/08/23 08:15:39;;;;;;;13.23;12.03;;;;;;;;;;5019571;28;20949;-59
2023/08/23 08:18:06;;;;;;;13.93;12.37;;;;;;;;;;5028771;28;20482;-59
2023/08/23 08:20:35;;;;;;;12.63;11.30;;;;;;;;;;5024393;28;20802;-60
2023/08/23 08:23:02;;;;;;;12.77;11.67;;;;;;;;;;5028185;28;20442;-60
2023/08/23 08:25:30;;;;;;;12.90;11.70;;;;;;;;;;5028880;28;20454;-60
2023/08/23 08:27:57;;;;;;;13.97;12.60;;;;;;;;;;5024985;28;20458;-60
2023/08/23 08:30:24;;;;;;;14.60;13.20;;;;;;;;;;5028473;28;20446;-59
2023/08/23 08:32:51;;;;;;;14.50;13.00;;;;;;;;;;5022618;28;20470;-57
2023/08/23 08:35:19;;;;;;;12.87;11.67;;;;;;;;;;5014613;28;20882;-57
2023/08/23 08:37:47;;;;;;;13.67;12.47;;;;;;;;;;5060057;22;20558;-85
2023/08/23 08:40:16;;;;;;;12.10;11.00;;;;;;;;;;5053474;28;21000;-86
2023/08/23 08:42:44;;;;;;;11.90;10.43;;;;;;;;;;5052409;28;20548;-86
2023/08/23 08:45:11;;;;;;;12.97;11.80;;;;;;;;;;5052975;28;20449;-85
2023/08/23 08:47:39;;;;;;;13.60;12.20;;;;;;;;;;5053603;28;20441;-86
2023/08/23 08:50:06;;;;;;;13.27;11.97;;;;;;;;;;5059343;28;20442;-86
2023/08/23 08:52:34;;;;;;;12.83;11.63;;;;;;;;;;5057229;28;20541;-85
2023/08/23 08:55:02;;;;;;;14.13;12.80;;;;;;;;;;5054311;28;20499;-85
2023/08/23 08:57:30;;;;;;;12.53;11.40;;;;;;;;;;5052500;28;20821;-85
2023/08/23 08:59:57;;;;;;;12.80;11.50;;;;;;;;;;5051337;28;20845;-84
2023/08/23 09:02:25;;;;;;;12.67;11.57;;;;;;;;;;5053208;28;20527;-84
2023/08/23 09:04:53;;;;;;;12.90;11.60;;;;;;;;;;5053339;28;20474;-84
2023/08/23 09:07:20;;;;;;;12.77;11.57;;;;;;;;;;5053378;28;20442;-84
2023/08/23 09:09:47;;;;;;;14.73;13.33;;;;;;;;;;5053630;28;20434;-84
2023/08/23 09:12:16;;;;;;;14.27;12.87;;;;;;;;;;5053061;28;20993;-84
2023/08/23 09:14:49;;;;;;;14.90;13.47;;;;;;;;;;5053309;28;20441;-84
2023/08/23 09:17:16;;;;;;;12.60;11.50;;;;;;;;;;5053711;28;20519;-84
2023/08/23 09:19:43;;;;;;;14.23;13.00;;;;;;;;;;5052705;28;20437;-84
2023/08/23 09:22:11;;;;;;;14.23;13.03;;;;;;;;;;5052767;28;20466;-84
2023/08/23 09:24:38;;;;;;;13.43;12.23;;;;;;;;;;5053129;28;20468;-84
2023/08/23 09:27:06;;;;;;;13.40;12.20;;;;;;;;;;5053447;28;20748;-84
2023/08/23 09:29:34;;;;;;;13.97;12.73;;;;;;;;;;5052723;28;20441;-84
2023/08/23 09:32:02;;;;;;;14.63;13.23;;;;;;;;;;5052711;28;20453;-84
2023/08/23 09:34:29;;;;;;;13.67;11.57;;;;;;;;;;5052879;28;20958;-84
2023/08/23 09:37:06;;;;;;;14.93;13.27;;;;;;;;;;5052434;28;20433;-84
2023/08/23 09:39:33;;;;;;;12.87;11.77;;;;;;;;;;5052873;28;20488;-86
2023/08/23 09:42:05;;;;;;;12.93;11.70;;;;;;;;;;5052433;28;20465;-84
2023/08/23 09:44:35;;;;;;;13.00;11.80;;;;;;;;;;5052144;28;20441;-84
2023/08/23 09:47:05;;;;;;;14.90;13.50;;;;;;;;;;5052713;28;20794;-84
2023/08/23 09:49:34;;;;;;;13.23;12.07;;;;;;;;;;5052381;28;20568;-84
2023/08/23 09:52:01;;;;;;;13.47;11.90;;;;;;;;;;5052397;28;20992;-84
2023/08/23 09:54:31;;;;;;;13.90;12.70;;;;;;;;;;5052720;28;20487;-84
2023/08/23 09:56:58;;;;;;;12.80;11.70;;;;;;;;;;5052570;28;20472;-84
2023/08/23 09:59:26;;;;;;;13.63;12.33;;;;;;;;;;5051942;28;20550;-86
2023/08/23 10:01:53;;;;;;;14.20;12.80;;;;;;;;;;5052251;28;20884;-84
2023/08/23 10:04:24;;;;;;;13.90;12.50;;;;;;;;;;5052055;28;20437;-84
2023/08/23 10:06:53;;;;;;;13.60;12.30;;;;;;;;;;5052511;28;20923;-86
2023/08/23 10:09:20;;;;;;;14.00;12.80;;;;;;;;;;5051607;28;20996;-84
2023/08/23 10:11:49;;;;;;;14.63;13.20;;;;;;;;;;5051898;28;20461;-84
2023/08/23 10:14:16;;;;;;;14.00;12.60;;;;;;;;;;5051592;28;20437;-84
2023/08/23 10:16:44;;;;;;;14.27;13.10;;;;;;;;;;5051820;28;20433;-84
2023/08/23 10:19:12;;;;;;;13.63;12.43;;;;;;;;;;5052168;28;20485;-84
2023/08/23 10:21:41;;;;;;;14.30;13.07;;;;;;;;;;5053207;28;20492;-84
2023/08/23 10:24:08;;;;;;;14.00;12.60;;;;;;;;;;5069931;28;20445;-83
2023/08/23 10:26:45;;;;;;;14.37;13.07;;;;;;;;;;5051880;28;20826;-83
2023/08/23 10:29:13;;;;;;;14.77;13.33;;;;;;;;;;5053353;28;20434;-84
2023/08/23 10:31:53;;;;;;;16.20;14.70;;;;;;;;;;5050387;28;21013;-84
2023/08/23 10:34:24;;;;;;;14.67;13.33;;;;;;;;;;5051197;28;20512;-83
2023/08/23 10:36:53;;;;;;;14.53;13.23;;;;;;;;;;5050923;28;20444;-84
2023/08/23 10:39:23;;;;;;;14.50;13.30;;;;;;;;;;5051601;28;20533;-84
2023/08/23 10:41:51;;;;;;;13.83;12.43;;;;;;;;;;5051422;28;20806;-83
2023/08/23 10:44:18;;;;;;;14.23;12.90;;;;;;;;;;5048364;28;20479;-84
2023/08/23 10:46:46;;;;;;;14.63;13.43;;;;;;;;;;5051689;28;20495;-84
2023/08/23 10:49:16;;;;;;;15.33;13.87;;;;;;;;;;5049020;28;20445;-83
2023/08/23 10:51:43;;;;;;;14.73;13.23;;;;;;;;;;5048438;28;20464;-84
2023/08/23 10:54:13;;;;;;;14.47;13.17;;;;;;;;;;5051145;28;20495;-85
2023/08/23 10:56:41;;;;;;;15.20;13.60;;;;;;;;;;5050747;28;20512;-84
2023/08/23 10:59:09;;;;;;;13.57;12.20;;;;;;;;;;5050323;28;20473;-85
2023/08/23 11:01:37;;;;;;;13.17;11.97;;;;;;;;;;5048950;28;20784;-83
2023/08/23 11:04:04;;;;;;;14.33;13.13;;;;;;;;;;5048782;28;20946;-84
2023/08/23 11:06:33;;;;;;;15.00;13.50;;;;;;;;;;5049495;28;20479;-84
2023/08/23 11:09:00;;;;;;;13.80;12.40;;;;;;;;;;5031575;28;20442;-84
2023/08/23 11:11:32;;;;;;;15.80;12.23;;;;;;;;;;5049846;28;20449;-84
2023/08/23 11:13:59;;;;;;;13.43;12.27;;;;;;;;;;5049823;28;20491;-84
2023/08/23 11:16:28;;;;;;;13.33;12.00;;;;;;;;;;5050361;28;20520;-84
2023/08/23 11:18:55;;;;;;;13.50;12.10;;;;;;;;;;5049281;28;20473;-84
2023/08/23 11:21:22;;;;;;;13.00;11.80;;;;;;;;;;5052218;28;20462;-86
2023/08/23 11:23:50;;;;;;;13.90;12.50;;;;;;;;;;5046925;28;20539;-84
2023/08/23 11:26:17;;;;;;;13.30;12.10;;;;;;;;;;5051574;28;20433;-83
2023/08/23 11:28:46;;;;;;;12.00;10.90;;;;;;;;;;5051625;28;20437;-84
2023/08/23 11:31:14;;;;;;;12.23;11.07;;;;;;;;;;5052846;28;20461;-84
2023/08/23 11:33:41;;;;;;;13.00;11.87;;;;;;;;;;5053546;28;20584;-83
2023/08/23 11:36:09;;;;;;;13.10;11.83;;;;;;;;;;5052822;28;20487;-84
2023/08/23 11:38:36;;;;;;;13.13;12.03;;;;;;;;;;5052947;28;20527;-83
2023/08/23 11:41:04;;;;;;;12.83;11.73;;;;;;;;;;5053491;28;20462;-84
2023/08/23 11:43:31;;;;;;;12.37;11.00;;;;;;;;;;5052279;28;20437;-84
2023/08/23 11:46:01;;;;;;;13.23;12.03;;;;;;;;;;5053020;28;20441;-84
2023/08/23 11:48:28;;;;;;;13.30;12.10;;;;;;;;;;5053153;28;20495;-84
2023/08/23 11:50:56;;;;;;;12.97;11.87;;;;;;;;;;5045814;28;20478;-84
2023/08/23 11:53:23;;;;;;;14.17;12.67;;;;;;;;;;5052678;28;20457;-83
2023/08/23 11:55:51;;;;;;;14.97;13.77;;;;;;;;;;5056412;28;20503;-84
2023/08/23 11:58:18;;;;;;;14.27;13.07;;;;;;;;;;5053987;28;20469;-83
2023/08/23 12:00:47;;;;;;;13.10;11.63;;;;;;;;;;5051036;28;20437;-83
2023/08/23 12:03:16;;;;;;;13.47;12.27;;;;;;;;;;5043786;28;20457;-83
2023/08/23 12:05:43;;;;;;;13.30;12.10;;;;;;;;;;5043389;28;20461;-83
2023/08/23 12:08:11;;;;;;;13.43;12.30;;;;;;;;;;5053101;28;20447;-83
2023/08/23 12:10:38;;;;;;;13.03;11.87;;;;;;;;;;5054652;28;20449;-83
2023/08/23 12:13:05;;;;;;;14.53;13.13;;;;;;;;;;5054377;28;20813;-84
2023/08/23 12:15:34;;;;;;;15.50;13.77;;;;;;;;;;5053584;28;20437;-84
2023/08/23 12:18:02;;;;;;;14.10;12.90;;;;;;;;;;5049192;28;20445;-84
2023/08/23 12:20:30;;;;;;;14.07;12.87;;;;;;;;;;5049821;28;20438;-84
2023/08/23 12:22:57;;;;;;;14.03;12.83;;;;;;;;;;5051257;28;20441;-84
2023/08/23 12:25:25;;;;;;;14.63;13.30;;;;;;;;;;5055594;28;20594;-83
2023/08/23 12:27:52;;;;;;;14.30;13.03;;;;;;;;;;5055766;28;20503;-84
2023/08/23 12:30:19;;;;;;;14.80;13.40;;;;;;;;;;5056112;28;20441;-83
2023/08/23 12:32:47;;;;;;;13.23;11.97;;;;;;;;;;5055162;28;20469;-84
2023/08/23 12:35:14;;;;;;;14.70;13.40;;;;;;;;;;5053502;28;20449;-84
2023/08/23 12:37:43;;;;;;;14.17;12.93;;;;;;;;;;5051983;28;20502;-83
2023/08/23 12:40:10;;;;;;;14.80;13.40;;;;;;;;;;5056163;28;20569;-84
2023/08/23 12:42:37;;;;;;;13.80;12.70;;;;;;;;;;5057350;28;20453;-84
2023/08/23 12:45:05;;;;;;;13.70;12.50;;;;;;;;;;5058304;28;20433;-83
2023/08/23 12:47:33;;;;;;;14.27;12.90;;;;;;;;;;5057412;28;20441;-84
2023/08/23 12:50:00;;;;;;;13.73;12.53;;;;;;;;;;5061627;28;20471;-84
2023/08/23 12:52:27;;;;;;;13.70;12.50;;;;;;;;;;5060634;28;20453;-83
2023/08/23 12:54:56;;;;;;;14.03;12.50;;;;;;;;;;5060969;28;20441;-84
2023/08/23 12:57:23;;;;;;;12.37;11.37;;;;;;;;;;5059496;28;20491;-84
2023/08/23 12:59:50;;;;;;;13.40;12.20;;;;;;;;;;5056396;28;20485;-84
2023/08/23 13:02:18;;;;;;;12.67;11.67;;;;;;;;;;5056741;28;20465;-84
2023/08/23 13:04:45;;;;;;;14.00;12.77;;;;;;;;;;5055224;28;20452;-84
2023/08/23 13:07:13;;;;;;;13.37;12.07;;;;;;;;;;5055149;28;20453;-84
2023/08/23 13:09:40;;;;;;;13.97;12.60;;;;;;;;;;5054449;28;20452;-84
2023/08/23 13:12:09;;;;;;;15.93;12.60;;;;;;;;;;5055446;28;20470;-84
2023/08/23 13:14:36;;;;;;;13.00;11.83;;;;;;;;;;5055666;28;20441;-84
2023/08/23 13:17:04;;;;;;;14.03;12.73;;;;;;;;;;5055812;28;20445;-84
2023/08/23 13:19:31;;;;;;;13.97;12.73;;;;;;;;;;5052107;28;20473;-84
2023/08/23 13:21:58;;;;;;;13.70;12.60;;;;;;;;;;5053265;28;20973;-84
2023/08/23 13:24:26;;;;;;;13.93;12.63;;;;;;;;;;5059477;28;20524;-83
2023/08/23 13:26:53;;;;;;;12.90;11.70;;;;;;;;;;5059547;28;20433;-83
2023/08/23 13:29:22;;;;;;;15.90;12.83;;;;;;;;;;5063394;28;20425;-84
2023/08/23 13:31:49;;;;;;;12.10;10.93;;;;;;;;;;5056072;28;20457;-82
2023/08/23 13:34:17;;;;;;;15.57;9.60;;;;;;;;;;5054146;28;20946;-85
2023/08/23 13:36:44;;;;;;;12.10;10.90;;;;;;;;;;5056828;28;20437;-84
2023/08/23 13:39:12;;;;;;;11.50;10.33;;;;;;;;;;5060942;28;20876;-84
2023/08/23 13:41:39;;;;;;;11.77;10.73;;;;;;;;;;5055486;28;20973;-85
2023/08/23 13:44:06;;;;;;;12.87;10.70;;;;;;;;;;5053716;28;20434;-84
2023/08/23 13:46:35;;;;;;;12.10;10.83;;;;;;;;;;5054748;28;20441;-84
2023/08/23 13:49:02;;;;;;;13.67;12.13;;;;;;;;;;5056462;28;20495;-84
2023/08/23 13:51:29;;;;;;;12.47;10.67;;;;;;;;;;5056557;28;20462;-84
2023/08/23 13:53:58;;;;;;;11.80;10.77;;;;;;;;;;5056915;28;20445;-84
2023/08/23 13:56:25;;;;;;;11.63;9.77;;;;;;;;;;5054387;28;20445;-84
2023/08/23 13:58:53;;;;;;;8.43;7.50;;;;;;;;;;5053760;28;20636;-84
2023/08/23 14:01:20;;;;;;;9.53;7.67;;;;;;;;;;5053406;28;20465;-85
2023/08/23 14:03:49;;;;;;;7.77;6.97;;;;;;;;;;5045689;28;20795;-85
2023/08/23 14:06:16;;;;;;;10.90;9.80;;;;;;;;;;5052796;28;20437;-85
2023/08/23 14:08:43;;;;;;;10.33;9.37;;;;;;;;;;5053008;28;20468;-85
2023/08/23 14:11:10;;;;;;;9.70;8.40;;;;;;;;;;5054037;28;20453;-84
2023/08/23 14:13:38;;;;;;;10.50;8.80;;;;;;;;;;5055839;28;20445;-84
2023/08/23 14:16:05;;;;;;;9.00;8.13;;;;;;;;;;5057758;28;20934;-84
2023/08/23 14:18:32;;;;;;;10.10;9.07;;;;;;;;;;5047712;28;20437;-84
2023/08/23 14:21:01;;;;;;;11.30;9.13;;;;;;;;;;5049565;28;20465;-84
2023/08/23 14:23:28;;;;;;;10.53;8.70;;;;;;;;;;5055128;28;20445;-84
2023/08/23 14:25:56;;;;;;;9.57;8.30;;;;;;;;;;5055069;28;20442;-84
2023/08/23 14:28:23;;;;;;;10.03;9.13;;;;;;;;;;5057286;28;20437;-84
2023/08/23 14:30:54;;;;;;;10.30;9.20;;;;;;;;;;5052716;28;20438;-84